Time;durP1;ratioP1;P1;durP2;ratioP2;P2;SDS_P1;SDS_P2;PMS_P1;PMS_P2;Temp;Humidity;BMP_temperature;BMP_pressure;BME280_temperature;BME280_humidity;BME280_pressure;Samples;Min_cycle;Max_cycle;Signal;HPM_P1;HPM_P2
2022/07/03 00:01:23;;;;;;;5.18;3.65;;;;;;;;;;5017357;28;20049;-74
2022/07/03 00:03:49;;;;;;;6.35;3.53;;;;;;;;;;5035352;28;20043;-70
2022/07/03 00:06:15;;;;;;;4.90;3.67;;;;;;;;;;5016839;28;20044;-70
2022/07/03 00:08:41;;;;;;;5.32;3.65;;;;;;;;;;5017236;28;20045;-70
2022/07/03 00:11:07;;;;;;;7.40;3.75;;;;;;;;;;5034435;28;20041;-75
2022/07/03 00:13:33;;;;;;;4.95;3.33;;;;;;;;;;5017094;28;20060;-75
2022/07/03 00:15:59;;;;;;;9.35;3.70;;;;;;;;;;5016481;28;20068;-70
2022/07/03 00:18:25;;;;;;;4.75;3.33;;;;;;;;;;5016966;28;20045;-70
2022/07/03 00:21:02;;;;;;;3.78;3.00;;;;;;;;;;5017065;28;20390;-70
2022/07/03 00:23:30;;;;;;;4.38;3.53;;;;;;;;;;5017321;28;20436;-70
2022/07/03 00:25:57;;;;;;;5.20;3.80;;;;;;;;;;5034466;28;20410;-70
2022/07/03 00:28:24;;;;;;;6.30;4.28;;;;;;;;;;5033346;28;20441;-70
2022/07/03 00:30:50;;;;;;;7.45;4.43;;;;;;;;;;5017145;28;20053;-74
2022/07/03 00:33:17;;;;;;;6.25;4.63;;;;;;;;;;5033907;28;20112;-70
2022/07/03 00:35:43;;;;;;;6.78;3.80;;;;;;;;;;5016599;28;20049;-70
2022/07/03 00:38:12;;;;;;;6.70;4.10;;;;;;;;;;5033839;28;20069;-70
2022/07/03 00:40:38;;;;;;;5.22;3.35;;;;;;;;;;5016296;28;20121;-70
2022/07/03 00:43:05;;;;;;;4.07;3.45;;;;;;;;;;5034079;28;20044;-70
2022/07/03 00:45:35;;;;;;;5.15;3.67;;;;;;;;;;5016326;28;20038;-69
2022/07/03 00:48:01;;;;;;;8.07;4.65;;;;;;;;;;5016537;28;20037;-71
2022/07/03 00:50:35;;;;;;;8.60;4.38;;;;;;;;;;5016388;28;20087;-70
2022/07/03 00:53:02;;;;;;;6.47;4.22;;;;;;;;;;5016121;28;20065;-70
2022/07/03 00:55:28;;;;;;;8.35;4.93;;;;;;;;;;5000229;28;20042;-74
2022/07/03 00:57:56;;;;;;;5.85;4.68;;;;;;;;;;5034228;28;20111;-74
2022/07/03 01:00:22;;;;;;;9.10;4.80;;;;;;;;;;5015879;28;20034;-74
2022/07/03 01:02:52;;;;;;;9.02;5.30;;;;;;;;;;5016484;28;20562;-74
2022/07/03 01:05:26;;;;;;;9.07;5.40;;;;;;;;;;5015904;28;20113;-75
2022/07/03 01:08:11;;;;;;;7.07;5.33;;;;;;;;;;5032143;28;20088;-75
2022/07/03 01:11:04;;;;;;;7.30;5.78;;;;;;;;;;5015980;28;20384;-74
2022/07/03 01:13:49;;;;;;;7.93;6.18;;;;;;;;;;5013248;28;20049;-74
2022/07/03 01:16:34;;;;;;;10.23;6.75;;;;;;;;;;5015265;28;20038;-70
2022/07/03 01:19:41;;;;;;;9.18;7.13;;;;;;;;;;5015774;28;20045;-71
2022/07/03 01:22:07;;;;;;;;;;;;;;;;;;4976008;28;20043;-70
2022/07/03 01:24:51;;;;;;;9.18;6.75;;;;;;;;;;4975505;28;20060;-71
2022/07/03 01:27:22;;;;;;;9.68;6.80;;;;;;;;;;4996965;28;20092;-75
2022/07/03 01:29:54;;;;;;;12.77;7.47;;;;;;;;;;5012488;28;20049;-70
2022/07/03 01:32:24;;;;;;;9.80;7.07;;;;;;;;;;5011661;28;20041;-74
2022/07/03 01:34:53;;;;;;;11.80;8.02;;;;;;;;;;5030921;28;20037;-75
2022/07/03 01:37:20;;;;;;;10.70;7.25;;;;;;;;;;5014863;28;20053;-75
2022/07/03 01:39:47;;;;;;;10.55;7.40;;;;;;;;;;5032879;28;20128;-75
2022/07/03 01:42:14;;;;;;;6.97;6.22;;;;;;;;;;5032828;28;20037;-75
2022/07/03 01:44:41;;;;;;;7.85;5.90;;;;;;;;;;5014128;28;20052;-71
2022/07/03 01:47:07;;;;;;;7.68;6.18;;;;;;;;;;5014913;28;20394;-75
2022/07/03 01:49:33;;;;;;;6.35;5.72;;;;;;;;;;5015379;28;20053;-75
2022/07/03 01:52:01;;;;;;;7.70;5.78;;;;;;;;;;5031537;28;20437;-75
2022/07/03 01:54:28;;;;;;;7.53;6.30;;;;;;;;;;5032627;28;20054;-71
2022/07/03 01:56:54;;;;;;;9.13;6.68;;;;;;;;;;5015210;28;20037;-70
2022/07/03 01:59:23;;;;;;;7.53;6.35;;;;;;;;;;5032178;28;20549;-71
2022/07/03 02:02:12;;;;;;;12.23;7.90;;;;;;;;;;5012885;28;20037;-70
2022/07/03 02:04:44;;;;;;;8.88;7.93;;;;;;;;;;5033180;28;20482;-71
2022/07/03 02:07:20;;;;;;;9.02;7.53;;;;;;;;;;5013953;28;20496;-71
2022/07/03 02:10:02;;;;;;;9.00;7.50;;;;;;;;;;5014643;28;20049;-72
2022/07/03 02:12:30;;;;;;;11.02;8.18;;;;;;;;;;5014731;28;20045;-75
2022/07/03 02:15:02;;;;;;;9.02;8.10;;;;;;;;;;5014408;28;20060;-75
2022/07/03 02:17:30;;;;;;;8.15;7.30;;;;;;;;;;5014599;28;20457;-75
2022/07/03 02:19:56;;;;;;;8.73;7.63;;;;;;;;;;5013751;28;20056;-76
2022/07/03 02:22:26;;;;;;;9.55;7.95;;;;;;;;;;5014461;28;20037;-75
2022/07/03 02:24:52;;;;;;;10.68;7.38;;;;;;;;;;5032168;28;20084;-75
2022/07/03 02:27:29;;;;;;;8.63;7.28;;;;;;;;;;5030794;28;20124;-71
2022/07/03 02:30:06;;;;;;;7.55;6.65;;;;;;;;;;5032250;28;20037;-71
2022/07/03 02:32:48;;;;;;;9.63;7.18;;;;;;;;;;5002032;28;20053;-74
2022/07/03 02:35:26;;;;;;;7.95;7.15;;;;;;;;;;5013960;28;20077;-71
2022/07/03 02:38:05;;;;;;;10.55;8.73;;;;;;;;;;5031995;28;20060;-70
2022/07/03 02:40:46;;;;;;;9.70;8.20;;;;;;;;;;5030820;28;20140;-71
2022/07/03 02:43:18;;;;;;;8.65;7.75;;;;;;;;;;5014336;28;20080;-71
2022/07/03 02:45:51;;;;;;;7.90;6.88;;;;;;;;;;5014470;28;20108;-71
2022/07/03 02:48:26;;;;;;;8.70;7.80;;;;;;;;;;5013701;28;20061;-71
2022/07/03 02:50:56;;;;;;;25.50;8.73;;;;;;;;;;5014315;28;20151;-75
2022/07/03 02:53:46;;;;;;;12.27;9.20;;;;;;;;;;5031763;28;20073;-70
2022/07/03 02:56:40;;;;;;;10.55;8.63;;;;;;;;;;4994865;28;20045;-70
2022/07/03 02:59:29;;;;;;;10.48;8.70;;;;;;;;;;5031743;28;20049;-71
2022/07/03 03:01:59;;;;;;;10.55;8.90;;;;;;;;;;4988528;28;20054;-71
2022/07/03 03:04:25;;;;;;;12.25;8.02;;;;;;;;;;5013612;28;20033;-71
2022/07/03 03:06:55;;;;;;;11.30;9.73;;;;;;;;;;5014325;28;20037;-75
2022/07/03 03:09:25;;;;;;;12.77;10.23;;;;;;;;;;5013504;28;20052;-71
2022/07/03 03:12:00;;;;;;;11.68;9.88;;;;;;;;;;5014398;28;20055;-71
2022/07/03 03:14:28;;;;;;;10.50;8.23;;;;;;;;;;5030083;28;20141;-71
2022/07/03 03:16:54;;;;;;;10.07;7.25;;;;;;;;;;5014101;28;20288;-70
2022/07/03 03:19:22;;;;;;;11.00;7.85;;;;;;;;;;5013738;28;20506;-71
2022/07/03 03:21:59;;;;;;;8.10;7.00;;;;;;;;;;5031649;28;20445;-71
2022/07/03 03:24:26;;;;;;;11.57;7.40;;;;;;;;;;5013671;28;20049;-75
2022/07/03 03:26:52;;;;;;;9.05;8.10;;;;;;;;;;5013659;28;20099;-71
2022/07/03 03:29:19;;;;;;;11.00;8.80;;;;;;;;;;5013582;28;20050;-71
2022/07/03 03:31:45;;;;;;;8.13;7.18;;;;;;;;;;5018029;28;20037;-71
2022/07/03 03:34:17;;;;;;;9.30;7.78;;;;;;;;;;5017535;28;20045;-71
2022/07/03 03:36:43;;;;;;;9.25;8.10;;;;;;;;;;5035023;28;20046;-74
2022/07/03 03:39:09;;;;;;;8.43;7.32;;;;;;;;;;5035282;28;20133;-75
2022/07/03 03:41:38;;;;;;;11.68;8.40;;;;;;;;;;5017351;28;20088;-71
2022/07/03 03:44:04;;;;;;;9.82;8.65;;;;;;;;;;5017734;28;20389;-71
2022/07/03 03:46:30;;;;;;;10.35;8.40;;;;;;;;;;5017357;28;20045;-71
2022/07/03 03:48:57;;;;;;;14.77;10.05;;;;;;;;;;5017582;28;20045;-71
2022/07/03 03:51:23;;;;;;;11.85;9.38;;;;;;;;;;5034905;28;20605;-75
2022/07/03 03:54:05;;;;;;;12.07;10.30;;;;;;;;;;5017732;28;20116;-75
2022/07/03 03:56:32;;;;;;;11.35;10.15;;;;;;;;;;5005550;28;20049;-74
2022/07/03 03:58:58;;;;;;;14.15;10.68;;;;;;;;;;5035302;28;20056;-75
2022/07/03 04:01:24;;;;;;;10.77;9.68;;;;;;;;;;5016802;28;20095;-71
2022/07/03 04:03:50;;;;;;;10.73;9.60;;;;;;;;;;5017085;28;20486;-71
2022/07/03 04:06:16;;;;;;;12.00;10.10;;;;;;;;;;5016343;28;20424;-71
2022/07/03 04:08:42;;;;;;;13.40;10.55;;;;;;;;;;5034540;28;20049;-70
2022/07/03 04:11:10;;;;;;;12.55;9.23;;;;;;;;;;5017058;28;20041;-74
2022/07/03 04:13:36;;;;;;;11.82;9.30;;;;;;;;;;5033531;28;20037;-71
2022/07/03 04:16:03;;;;;;;11.10;9.00;;;;;;;;;;5000444;28;20049;-71
2022/07/03 04:18:29;;;;;;;10.50;9.40;;;;;;;;;;5016526;28;20044;-70
2022/07/03 04:20:55;;;;;;;13.05;9.88;;;;;;;;;;5016927;28;20091;-75
2022/07/03 04:23:21;;;;;;;10.52;9.40;;;;;;;;;;5016761;28;20042;-71
2022/07/03 04:25:47;;;;;;;9.32;8.40;;;;;;;;;;5016368;28;20422;-75
2022/07/03 04:28:13;;;;;;;8.75;7.57;;;;;;;;;;5016661;28;20057;-74
2022/07/03 04:30:40;;;;;;;12.73;8.05;;;;;;;;;;5000181;28;20113;-75
2022/07/03 04:33:06;;;;;;;11.32;8.48;;;;;;;;;;5016399;28;20088;-75
2022/07/03 04:35:32;;;;;;;10.55;8.52;;;;;;;;;;5033909;28;20037;-71
2022/07/03 04:37:58;;;;;;;9.82;8.23;;;;;;;;;;5016820;28;20045;-71
2022/07/03 04:40:24;;;;;;;9.40;7.90;;;;;;;;;;5016716;28;20367;-71
2022/07/03 04:42:50;;;;;;;10.32;8.13;;;;;;;;;;5015240;28;20041;-71
2022/07/03 04:45:16;;;;;;;8.95;8.05;;;;;;;;;;5016192;28;20048;-71
2022/07/03 04:47:42;;;;;;;10.30;7.57;;;;;;;;;;5016326;28;20073;-71
2022/07/03 04:50:08;;;;;;;9.35;7.60;;;;;;;;;;5016170;28;20142;-71
2022/07/03 04:52:34;;;;;;;9.70;7.57;;;;;;;;;;5016050;28;20564;-72
2022/07/03 04:55:02;;;;;;;7.78;6.47;;;;;;;;;;5016351;28;20084;-72
2022/07/03 04:57:28;;;;;;;7.40;6.28;;;;;;;;;;5033953;28;20107;-72
2022/07/03 04:59:54;;;;;;;7.13;6.30;;;;;;;;;;5016105;28;20037;-72
2022/07/03 05:02:20;;;;;;;8.27;6.03;;;;;;;;;;5016070;28;20041;-72
2022/07/03 05:04:46;;;;;;;6.93;5.75;;;;;;;;;;5015715;28;20041;-72
2022/07/03 05:07:12;;;;;;;8.10;6.18;;;;;;;;;;5015786;28;20091;-72
2022/07/03 05:09:38;;;;;;;7.22;5.65;;;;;;;;;;5015649;28;20124;-73
2022/07/03 05:12:05;;;;;;;6.75;5.00;;;;;;;;;;5032555;28;20560;-73
2022/07/03 05:14:31;;;;;;;9.73;5.25;;;;;;;;;;5033460;28;20048;-74
2022/07/03 05:16:57;;;;;;;6.72;4.70;;;;;;;;;;5015832;28;20049;-73
2022/07/03 05:19:23;;;;;;;5.95;4.68;;;;;;;;;;5016048;28;20124;-73
2022/07/03 05:21:49;;;;;;;6.05;4.00;;;;;;;;;;5015321;28;20052;-73
2022/07/03 05:24:15;;;;;;;5.80;3.85;;;;;;;;;;5033776;28;20045;-74
2022/07/03 05:26:41;;;;;;;5.65;3.85;;;;;;;;;;5015195;28;20057;-75
2022/07/03 05:29:07;;;;;;;4.97;3.47;;;;;;;;;;5032371;28;20406;-75
2022/07/03 05:31:33;;;;;;;4.70;3.78;;;;;;;;;;4998983;28;20118;-75
2022/07/03 05:33:59;;;;;;;4.60;3.00;;;;;;;;;;5015459;28;20041;-75
2022/07/03 05:36:25;;;;;;;4.40;3.15;;;;;;;;;;5015701;28;20049;-75
2022/07/03 05:41:36;;;;;;;4.55;3.15;;;;;;;;;;5014864;28;20368;-75
2022/07/03 05:44:02;;;;;;;5.95;2.75;;;;;;;;;;5033168;28;20047;-75
2022/07/03 05:46:28;;;;;;;3.33;2.38;;;;;;;;;;5015588;28;20550;-75
2022/07/03 05:48:54;;;;;;;4.43;2.80;;;;;;;;;;5015195;28;20433;-75
2022/07/03 05:51:20;;;;;;;3.70;2.58;;;;;;;;;;5015097;28;20045;-75
2022/07/03 05:53:46;;;;;;;4.47;2.53;;;;;;;;;;5014803;28;20049;-75
2022/07/03 05:56:12;;;;;;;7.20;2.60;;;;;;;;;;5015172;28;20043;-75
2022/07/03 05:58:41;;;;;;;5.30;2.40;;;;;;;;;;5014750;28;20049;-72
2022/07/03 06:01:07;;;;;;;6.00;2.53;;;;;;;;;;5015540;28;20485;-75
2022/07/03 06:03:33;;;;;;;3.67;2.50;;;;;;;;;;5015188;28;20185;-74
2022/07/03 06:05:59;;;;;;;4.93;2.50;;;;;;;;;;5015033;28;20056;-75
2022/07/03 06:08:25;;;;;;;5.13;2.30;;;;;;;;;;5014696;28;20041;-75
2022/07/03 06:10:57;;;;;;;6.20;2.10;;;;;;;;;;5014882;28;20037;-75
2022/07/03 06:13:23;;;;;;;4.53;1.95;;;;;;;;;;5015696;28;20046;-73
2022/07/03 06:15:49;;;;;;;4.80;1.90;;;;;;;;;;5014701;28;20045;-73
2022/07/03 06:18:15;;;;;;;3.97;1.90;;;;;;;;;;5014829;28;20050;-73
2022/07/03 06:20:41;;;;;;;4.38;1.80;;;;;;;;;;5014748;28;20083;-72
2022/07/03 06:23:07;;;;;;;4.07;1.98;;;;;;;;;;5032101;28;20087;-73
2022/07/03 06:25:33;;;;;;;6.07;2.00;;;;;;;;;;4998283;28;20049;-73
2022/07/03 06:28:08;;;;;;;4.50;1.80;;;;;;;;;;5032162;28;20057;-73
2022/07/03 06:30:34;;;;;;;7.20;2.15;;;;;;;;;;4999493;28;20040;-73
2022/07/03 06:33:00;;;;;;;4.43;1.85;;;;;;;;;;5014260;28;20462;-73
2022/07/03 06:35:26;;;;;;;3.22;1.90;;;;;;;;;;5014915;28;20037;-73
2022/07/03 06:37:52;;;;;;;4.90;1.65;;;;;;;;;;5031710;28;20045;-73
2022/07/03 06:40:18;;;;;;;3.38;1.55;;;;;;;;;;5014243;28;20048;-74
2022/07/03 06:42:44;;;;;;;3.95;1.95;;;;;;;;;;5014320;28;20041;-75
2022/07/03 06:45:10;;;;;;;4.03;1.65;;;;;;;;;;5014537;28;20486;-75
2022/07/03 06:47:37;;;;;;;4.82;1.88;;;;;;;;;;5032077;28;20044;-75
2022/07/03 06:50:04;;;;;;;4.07;1.92;;;;;;;;;;5014136;28;20073;-75
2022/07/03 06:52:30;;;;;;;4.03;1.60;;;;;;;;;;5013967;28;20077;-74
2022/07/03 06:54:56;;;;;;;3.53;1.60;;;;;;;;;;5014165;28;20490;-73
2022/07/03 06:57:22;;;;;;;3.92;1.75;;;;;;;;;;5014135;28;20049;-73
2022/07/03 06:59:48;;;;;;;3.88;1.67;;;;;;;;;;5014076;28;20057;-74
2022/07/03 07:02:14;;;;;;;4.68;1.52;;;;;;;;;;5031890;28;20071;-72
2022/07/03 07:04:41;;;;;;;5.68;1.80;;;;;;;;;;5033752;28;20033;-74
2022/07/03 07:07:07;;;;;;;3.63;1.30;;;;;;;;;;5020568;28;20044;-70
2022/07/03 07:09:33;;;;;;;2.72;1.30;;;;;;;;;;5020440;28;20155;-73
2022/07/03 07:11:59;;;;;;;2.92;0.88;;;;;;;;;;5004081;28;20125;-74
2022/07/03 07:14:25;;;;;;;2.25;0.85;;;;;;;;;;5020850;28;20482;-73
2022/07/03 07:16:51;;;;;;;3.97;0.90;;;;;;;;;;5038246;28;20112;-74
2022/07/03 07:19:17;;;;;;;6.95;1.00;;;;;;;;;;5020721;28;20079;-73
2022/07/03 07:21:43;;;;;;;3.50;0.90;;;;;;;;;;5037293;28;20045;-73
2022/07/03 07:24:09;;;;;;;3.53;1.05;;;;;;;;;;5020266;28;20433;-74
2022/07/03 07:26:35;;;;;;;3.75;1.00;;;;;;;;;;5020439;28;20103;-74
2022/07/03 07:29:01;;;;;;;2.97;0.90;;;;;;;;;;4987985;28;20453;-71
2022/07/03 07:31:27;;;;;;;2.88;0.80;;;;;;;;;;5038395;28;20149;-74
2022/07/03 07:33:54;;;;;;;3.22;0.80;;;;;;;;;;5020080;28;20041;-75
2022/07/03 07:36:20;;;;;;;2.45;0.70;;;;;;;;;;5020592;28;20120;-75
2022/07/03 07:38:46;;;;;;;3.70;1.00;;;;;;;;;;5020114;28;20124;-71
2022/07/03 07:41:12;;;;;;;4.97;0.90;;;;;;;;;;5037918;28;20034;-75
2022/07/03 07:43:38;;;;;;;2.80;0.70;;;;;;;;;;5020325;28;20033;-72
2022/07/03 07:46:04;;;;;;;3.47;0.73;;;;;;;;;;5020114;28;20048;-74
2022/07/03 07:48:31;;;;;;;1.98;0.70;;;;;;;;;;5020581;28;20604;-74
2022/07/03 07:50:57;;;;;;;3.28;0.80;;;;;;;;;;5038115;28;20044;-72
2022/07/03 07:53:23;;;;;;;2.80;0.90;;;;;;;;;;5020759;28;20528;-75
2022/07/03 07:55:49;;;;;;;2.90;0.90;;;;;;;;;;5020429;28;20047;-74
2022/07/03 07:58:15;;;;;;;2.47;0.68;;;;;;;;;;5020123;28;20056;-70
2022/07/03 08:05:35;;;;;;;2.20;0.60;;;;;;;;;;5020449;28;20053;-72
2022/07/03 08:06:15;;;;;;;3.40;0.70;;;;;;;;;;5020316;28;20413;-71
2022/07/03 08:08:41;;;;;;;2.22;0.70;;;;;;;;;;5019811;28;20128;-70
2022/07/03 08:11:07;;;;;;;2.88;0.70;;;;;;;;;;5019513;28;20131;-74
2022/07/03 08:13:33;;;;;;;3.25;1.05;;;;;;;;;;5020147;28;20076;-69
2022/07/03 08:15:59;;;;;;;3.13;0.82;;;;;;;;;;5001694;28;20046;-71
2022/07/03 08:18:25;;;;;;;2.42;0.93;;;;;;;;;;5016180;28;20560;-69
2022/07/03 08:20:51;;;;;;;1.88;0.70;;;;;;;;;;5017007;28;20047;-70
2022/07/03 08:23:18;;;;;;;3.75;0.90;;;;;;;;;;5016980;28;20044;-73
2022/07/03 08:25:44;;;;;;;3.47;0.73;;;;;;;;;;5016669;28;20560;-69
2022/07/03 08:28:10;;;;;;;2.30;0.80;;;;;;;;;;5033288;28;20037;-71
2022/07/03 08:30:36;;;;;;;3.97;0.90;;;;;;;;;;5022637;28;20042;-70
2022/07/03 08:33:02;;;;;;;3.35;0.73;;;;;;;;;;5016479;28;20548;-71
2022/07/03 08:35:29;;;;;;;2.70;0.80;;;;;;;;;;5016535;28;20095;-71
2022/07/03 08:37:55;;;;;;;3.60;0.80;;;;;;;;;;5000136;28;20057;-70
2022/07/03 08:40:22;;;;;;;2.60;0.80;;;;;;;;;;5016178;28;20037;-73
2022/07/03 08:42:48;;;;;;;3.28;0.90;;;;;;;;;;5034482;28;20073;-70
2022/07/03 08:45:15;;;;;;;2.20;0.70;;;;;;;;;;5016127;28;20042;-73
2022/07/03 08:47:45;;;;;;;5.88;0.90;;;;;;;;;;5016687;28;20041;-71
2022/07/03 08:50:12;;;;;;;3.78;1.10;;;;;;;;;;5015831;28;20041;-71
2022/07/03 08:52:39;;;;;;;6.50;1.17;;;;;;;;;;5016676;28;20397;-73
2022/07/03 08:55:05;;;;;;;2.67;0.95;;;;;;;;;;5015682;28;20048;-73
2022/07/03 08:57:35;;;;;;;2.85;0.82;;;;;;;;;;5032695;28;20041;-74
2022/07/03 09:00:03;;;;;;;2.60;0.90;;;;;;;;;;5015756;28;20092;-74
2022/07/03 09:02:29;;;;;;;3.40;0.93;;;;;;;;;;5000448;28;20045;-74
2022/07/03 09:04:57;;;;;;;3.60;1.10;;;;;;;;;;5016585;28;20071;-74
2022/07/03 09:07:24;;;;;;;4.60;0.90;;;;;;;;;;5016129;28;20104;-74
2022/07/03 09:09:54;;;;;;;3.85;1.00;;;;;;;;;;5015949;28;20132;-74
2022/07/03 09:12:20;;;;;;;3.88;1.20;;;;;;;;;;5035169;28;20441;-74
2022/07/03 09:14:46;;;;;;;4.53;1.10;;;;;;;;;;4983657;28;20418;-73
2022/07/03 09:17:12;;;;;;;2.83;1.08;;;;;;;;;;5015983;28;20175;-77
2022/07/03 09:19:43;;;;;;;3.17;1.20;;;;;;;;;;5016216;28;20041;-75
2022/07/03 09:22:29;;;;;;;5.25;1.20;;;;;;;;;;5033439;28;20514;-75
2022/07/03 09:25:03;;;;;;;3.50;0.82;;;;;;;;;;5016066;28;20033;-72
2022/07/03 09:27:29;;;;;;;3.72;0.90;;;;;;;;;;5016030;28;20053;-71
2022/07/03 09:30:03;;;;;;;8.65;1.77;;;;;;;;;;5016219;28;20075;-71
2022/07/03 09:32:49;;;;;;;3.42;1.00;;;;;;;;;;5016303;28;20553;-74
2022/07/03 09:35:15;;;;;;;;;;;;;;;;;;5015636;28;20034;-75
2022/07/03 09:37:42;;;;;;;4.18;1.00;;;;;;;;;;5033568;28;19928;-74
2022/07/03 09:40:08;;;;;;;4.18;1.08;;;;;;;;;;5015147;28;20038;-75
2022/07/03 09:42:34;;;;;;;4.50;1.20;;;;;;;;;;5015604;28;20045;-74
2022/07/03 09:45:00;;;;;;;3.50;1.23;;;;;;;;;;5015375;28;20045;-75
2022/07/03 09:47:27;;;;;;;4.75;1.38;;;;;;;;;;5015435;28;20038;-75
2022/07/03 09:49:58;;;;;;;3.42;1.17;;;;;;;;;;5033159;28;20107;-75
2022/07/03 09:52:34;;;;;;;3.28;1.20;;;;;;;;;;5015206;28;20513;-75
2022/07/03 09:55:21;;;;;;;3.38;1.45;;;;;;;;;;5015205;28;20053;-75
2022/07/03 09:57:47;;;;;;;4.82;1.00;;;;;;;;;;5015173;28;20399;-73
2022/07/03 10:00:20;;;;;;;4.50;1.30;;;;;;;;;;5014965;28;20042;-70
2022/07/03 10:03:19;;;;;;;4.95;1.38;;;;;;;;;;5015170;28;20041;-74
2022/07/03 10:05:45;;;;;;;5.68;1.60;;;;;;;;;;4993483;28;20126;-72
2022/07/03 10:08:19;;;;;;;4.93;1.80;;;;;;;;;;4998462;28;20041;-72
2022/07/03 10:10:46;;;;;;;4.95;1.42;;;;;;;;;;5032118;28;20505;-70
2022/07/03 10:13:12;;;;;;;2.80;1.30;;;;;;;;;;5015180;28;20065;-71
2022/07/03 10:15:39;;;;;;;3.42;1.20;;;;;;;;;;5032557;28;20116;-72
2022/07/03 10:18:06;;;;;;;5.28;1.00;;;;;;;;;;5032849;28;20041;-70
2022/07/03 10:20:48;;;;;;;4.55;1.20;;;;;;;;;;5032902;28;20247;-76
2022/07/03 10:23:18;;;;;;;4.90;1.70;;;;;;;;;;5014637;28;20045;-74
2022/07/03 10:25:44;;;;;;;3.25;1.30;;;;;;;;;;5032291;28;20053;-71
2022/07/03 10:28:12;;;;;;;2.88;1.00;;;;;;;;;;5030914;28;20401;-73
2022/07/03 10:30:39;;;;;;;3.60;1.33;;;;;;;;;;5014888;28;20034;-71
2022/07/03 10:33:08;;;;;;;3.65;1.15;;;;;;;;;;5033287;28;20037;-75
2022/07/03 10:35:35;;;;;;;5.60;1.35;;;;;;;;;;5014848;28;20037;-75
2022/07/03 10:38:01;;;;;;;4.85;1.40;;;;;;;;;;5014887;28;20045;-75
2022/07/03 10:46:26;;;;;;;8.27;1.38;;;;;;;;;;5031773;28;20482;-70
2022/07/03 10:48:52;;;;;;;4.13;1.10;;;;;;;;;;5030974;28;20087;-72
2022/07/03 10:51:18;;;;;;;4.65;1.30;;;;;;;;;;5013825;28;20046;-71
2022/07/03 10:53:45;;;;;;;5.75;1.30;;;;;;;;;;5032355;28;20038;-73
2022/07/03 10:56:11;;;;;;;4.28;1.20;;;;;;;;;;5031460;28;20116;-73
2022/07/03 10:58:55;;;;;;;3.65;1.13;;;;;;;;;;5032050;28;20486;-73
2022/07/03 11:01:27;;;;;;;4.03;1.10;;;;;;;;;;5014245;28;20553;-73
2022/07/03 11:03:55;;;;;;;5.78;1.33;;;;;;;;;;5014320;28;20076;-72
2022/07/03 11:06:21;;;;;;;6.57;3.47;;;;;;;;;;5031293;28;20033;-72
2022/07/03 11:09:03;;;;;;;5.22;1.58;;;;;;;;;;4997952;28;20056;-74
2022/07/03 11:11:57;;;;;;;4.20;1.15;;;;;;;;;;4998147;28;20052;-75
2022/07/03 11:14:25;;;;;;;4.82;1.08;;;;;;;;;;5014034;28;20497;-75
2022/07/03 11:17:10;;;;;;;3.25;1.10;;;;;;;;;;5014215;28;20053;-75
2022/07/03 11:19:36;;;;;;;7.68;2.30;;;;;;;;;;5014147;28;20490;-75
2022/07/03 11:22:06;;;;;;;4.50;1.08;;;;;;;;;;5014433;28;20045;-75
2022/07/03 11:24:32;;;;;;;3.60;1.40;;;;;;;;;;5031534;28;20041;-75
2022/07/03 11:27:17;;;;;;;4.05;1.27;;;;;;;;;;5000196;28;20089;-74
2022/07/03 11:29:48;;;;;;;4.93;0.95;;;;;;;;;;4994917;28;20564;-74
2022/07/03 11:32:33;;;;;;;3.70;1.15;;;;;;;;;;5011175;28;20092;-75
2022/07/03 11:34:59;;;;;;;4.72;1.10;;;;;;;;;;5011938;28;20046;-75
2022/07/03 11:37:26;;;;;;;4.15;1.00;;;;;;;;;;4994098;28;20487;-75
2022/07/03 11:39:53;;;;;;;5.30;1.00;;;;;;;;;;4978823;28;20052;-72
2022/07/03 11:42:19;;;;;;;2.58;1.00;;;;;;;;;;5011837;28;20073;-72
2022/07/03 11:44:47;;;;;;;4.35;1.20;;;;;;;;;;5010961;28;20037;-72
2022/07/03 11:47:14;;;;;;;3.53;1.10;;;;;;;;;;5011655;28;20041;-71
2022/07/03 11:49:49;;;;;;;4.72;1.00;;;;;;;;;;4977971;28;20050;-71
2022/07/03 11:52:15;;;;;;;;;;;;;;;;;;5013938;28;20506;-72
2022/07/03 11:54:52;;;;;;;3.53;0.90;;;;;;;;;;4998366;28;19917;-75
2022/07/03 11:57:18;;;;;;;2.58;0.90;;;;;;;;;;4995033;28;20488;-76
2022/07/03 11:59:44;;;;;;;3.83;0.85;;;;;;;;;;5014178;28;20057;-75
2022/07/03 12:02:10;;;;;;;3.25;0.80;;;;;;;;;;5014473;28;20038;-70
2022/07/03 12:04:36;;;;;;;3.42;0.70;;;;;;;;;;4988034;28;20049;-73
2022/07/03 12:07:02;;;;;;;3.92;1.00;;;;;;;;;;5014008;28;20046;-71
2022/07/03 12:09:30;;;;;;;1.88;0.80;;;;;;;;;;4997202;28;20045;-70
2022/07/03 12:12:00;;;;;;;2.58;0.80;;;;;;;;;;4997692;28;20050;-72
2022/07/03 12:14:35;;;;;;;2.30;1.05;;;;;;;;;;5013666;28;20129;-75
2022/07/03 12:17:01;;;;;;;2.47;0.93;;;;;;;;;;5013692;28;20049;-71
2022/07/03 12:19:27;;;;;;;2.50;0.73;;;;;;;;;;5013669;28;20053;-73
2022/07/03 12:21:53;;;;;;;3.30;1.00;;;;;;;;;;5013674;28;20042;-72
2022/07/03 12:24:20;;;;;;;2.67;0.88;;;;;;;;;;4981491;28;20049;-75
2022/07/03 12:26:48;;;;;;;2.88;0.80;;;;;;;;;;4980884;28;20054;-72
2022/07/03 12:29:15;;;;;;;2.20;0.75;;;;;;;;;;4997427;28;20089;-75
2022/07/03 12:31:41;;;;;;;1.73;0.82;;;;;;;;;;5014553;28;20038;-76
2022/07/03 12:34:08;;;;;;;3.35;0.63;;;;;;;;;;4997237;28;20045;-75
2022/07/03 12:36:34;;;;;;;3.42;0.95;;;;;;;;;;4997044;28;20129;-75
2022/07/03 12:39:00;;;;;;;2.05;0.73;;;;;;;;;;4996970;28;20042;-72
2022/07/03 12:41:27;;;;;;;3.13;0.98;;;;;;;;;;5014870;28;20444;-70
2022/07/03 12:43:54;;;;;;;4.65;1.00;;;;;;;;;;4997203;28;20419;-72
2022/07/03 12:46:21;;;;;;;2.15;0.90;;;;;;;;;;4996652;28;20038;-70
2022/07/03 12:48:48;;;;;;;4.40;0.90;;;;;;;;;;4996507;28;20057;-69
2022/07/03 12:51:15;;;;;;;3.47;0.95;;;;;;;;;;4996817;28;20038;-71
2022/07/03 12:53:41;;;;;;;2.13;0.95;;;;;;;;;;4996788;28;20529;-73
2022/07/03 12:56:08;;;;;;;5.05;1.25;;;;;;;;;;4996792;28;20116;-75
2022/07/03 13:01:27;;;;;;;6.68;1.90;;;;;;;;;;5014234;28;20490;-74
2022/07/03 13:03:53;;;;;;;5.22;1.77;;;;;;;;;;5013488;28;20030;-74
2022/07/03 13:06:20;;;;;;;5.78;1.80;;;;;;;;;;5014512;28;20034;-74
2022/07/03 13:08:58;;;;;;;2.92;1.55;;;;;;;;;;4996459;28;20129;-71
2022/07/03 13:11:40;;;;;;;4.43;1.60;;;;;;;;;;4997315;28;20172;-74
2022/07/03 13:14:13;;;;;;;3.75;1.60;;;;;;;;;;4980425;28;20046;-72
2022/07/03 13:16:45;;;;;;;4.70;1.70;;;;;;;;;;4996409;28;20038;-70
2022/07/03 13:19:12;;;;;;;4.60;2.22;;;;;;;;;;4996025;28;20054;-70
2022/07/03 13:21:38;;;;;;;3.80;2.10;;;;;;;;;;4996246;28;20045;-71
2022/07/03 13:24:05;;;;;;;5.07;2.10;;;;;;;;;;4996422;28;20037;-72
2022/07/03 13:26:32;;;;;;;4.93;2.10;;;;;;;;;;5005894;28;20084;-68
2022/07/03 13:28:58;;;;;;;5.10;2.13;;;;;;;;;;5033880;28;20585;-75
2022/07/03 13:31:24;;;;;;;3.33;1.70;;;;;;;;;;5033640;28;20041;-74
2022/07/03 13:33:50;;;;;;;3.63;1.50;;;;;;;;;;5033247;28;20119;-74
2022/07/03 13:36:17;;;;;;;3.35;1.50;;;;;;;;;;5015874;28;20041;-74
2022/07/03 13:38:43;;;;;;;2.60;1.55;;;;;;;;;;5031810;28;20133;-74
2022/07/03 13:41:36;;;;;;;2.72;1.60;;;;;;;;;;5016164;28;20398;-75
2022/07/03 13:44:02;;;;;;;3.60;1.60;;;;;;;;;;4996843;28;20132;-74
2022/07/03 13:46:28;;;;;;;4.38;1.70;;;;;;;;;;5034136;28;20168;-72
2022/07/03 13:48:54;;;;;;;3.92;1.80;;;;;;;;;;5032616;28;20103;-75
2022/07/03 13:51:20;;;;;;;3.70;1.70;;;;;;;;;;5015833;28;20052;-75
2022/07/03 13:53:47;;;;;;;3.72;1.92;;;;;;;;;;5015517;28;20045;-72
2022/07/03 13:56:16;;;;;;;3.47;2.00;;;;;;;;;;4999379;28;20460;-71
2022/07/03 13:58:43;;;;;;;2.85;1.48;;;;;;;;;;5014849;28;20081;-71
2022/07/03 14:01:09;;;;;;;5.05;2.10;;;;;;;;;;5033168;28;20425;-72
2022/07/03 14:03:35;;;;;;;4.57;2.20;;;;;;;;;;4998548;28;20049;-72
2022/07/03 14:06:01;;;;;;;3.10;1.70;;;;;;;;;;5015014;28;20045;-69
2022/07/03 14:08:27;;;;;;;2.88;1.45;;;;;;;;;;5032848;28;20041;-68
2022/07/03 14:10:53;;;;;;;3.42;1.25;;;;;;;;;;5014937;28;20045;-72
2022/07/03 14:13:19;;;;;;;4.35;1.30;;;;;;;;;;5015114;28;20098;-70
2022/07/03 14:15:45;;;;;;;2.97;1.30;;;;;;;;;;5031468;28;20045;-71
2022/07/03 14:18:11;;;;;;;3.20;1.25;;;;;;;;;;5014523;28;20049;-73
2022/07/03 14:20:37;;;;;;;3.70;1.23;;;;;;;;;;5032318;28;20056;-70
2022/07/03 14:23:06;;;;;;;2.97;1.23;;;;;;;;;;5015471;28;20493;-75
2022/07/03 14:25:32;;;;;;;3.65;1.20;;;;;;;;;;4998849;28;20617;-72
2022/07/03 14:33:28;;;;;;;2.45;1.10;;;;;;;;;;4981584;28;20046;-71
2022/07/03 14:35:54;;;;;;;2.72;1.20;;;;;;;;;;4995597;28;20092;-72
2022/07/03 14:38:20;;;;;;;2.60;1.17;;;;;;;;;;5012860;28;20046;-72
2022/07/03 14:40:46;;;;;;;4.43;1.25;;;;;;;;;;5012281;28;20060;-70
2022/07/03 14:43:12;;;;;;;3.88;1.48;;;;;;;;;;5011184;28;20045;-69
2022/07/03 14:45:39;;;;;;;3.08;1.40;;;;;;;;;;5011601;28;20050;-72
2022/07/03 14:48:05;;;;;;;2.25;1.10;;;;;;;;;;4995033;28;20037;-69
2022/07/03 14:50:31;;;;;;;3.83;1.73;;;;;;;;;;5011323;28;20505;-70
2022/07/03 14:53:16;;;;;;;3.92;1.50;;;;;;;;;;5013163;28;20044;-71
2022/07/03 14:55:45;;;;;;;5.25;2.03;;;;;;;;;;5011098;28;20034;-70
2022/07/03 14:58:18;;;;;;;4.53;1.75;;;;;;;;;;5011125;28;20042;-71
2022/07/03 15:00:49;;;;;;;5.97;1.90;;;;;;;;;;4978563;28;20573;-71
2022/07/03 15:03:18;;;;;;;3.58;2.00;;;;;;;;;;4978219;28;20029;-74
2022/07/03 15:05:46;;;;;;;3.90;1.77;;;;;;;;;;5011705;28;20398;-74
2022/07/03 15:08:15;;;;;;;3.35;1.95;;;;;;;;;;4994570;28;20096;-74
2022/07/03 15:10:42;;;;;;;3.92;1.90;;;;;;;;;;5012129;28;20073;-69
2022/07/03 15:13:08;;;;;;;3.45;2.25;;;;;;;;;;4994804;28;20514;-75